Arlington, Mississippi
Current Conditions -  °F | °C
As of 6:35 PM on Saturday 25 Oct 2014 (Local Time) from K1R7 Reporting Station
Clear Clear  
Wind Chill: 73°   Ceiling: Unl
Heat Index: 73°   Visibility: 9mi
Dew Point: 61°   Wind: 0mph
Humidity: 65%   Direction: NA
Pressure: 30.1"   Gusts: NA
Location:  31.4439°N, 90.4692°W
Report Text: K1R7 252335Z AUTO 00000KT 9SM CLR 23/16 A3010 RMK AO2
Loading
Personal Weather Stations






























Interactive Weather Map
Tropical Storm Tracking
New forecast layout! Learn more

10-Day Weather Forecast

Advertisements
Track Severe Weather on mobile